createdAt,value
2019-02-25T00:00:44.907Z,3.00
2019-02-25T00:03:13.964Z,3.17
2019-02-25T00:05:43.045Z,2.80
2019-02-25T00:08:12.130Z,2.77
2019-02-25T00:10:41.173Z,3.73
2019-02-25T00:13:10.226Z,3.70
2019-02-25T00:15:39.632Z,3.37
2019-02-25T00:18:08.999Z,3.53
2019-02-25T00:20:37.965Z,3.50
2019-02-25T00:23:07.474Z,3.73
2019-02-25T00:25:36.518Z,3.90
2019-02-25T00:28:05.655Z,3.03
2019-02-25T00:30:34.955Z,3.57
2019-02-25T00:33:04.052Z,3.83
2019-02-25T00:35:33.091Z,3.57
2019-02-25T00:38:02.236Z,3.10
2019-02-25T00:40:31.330Z,3.30
2019-02-25T00:43:00.405Z,3.13
2019-02-25T00:45:30.089Z,3.60
2019-02-25T00:47:59.138Z,3.27
2019-02-25T00:50:28.182Z,3.60
2019-02-25T00:52:57.263Z,3.60
2019-02-25T00:55:26.241Z,3.33
2019-02-25T00:57:55.298Z,4.20
2019-02-25T01:00:25.262Z,3.27
2019-02-25T01:02:54.317Z,3.13
2019-02-25T01:05:23.363Z,3.27
2019-02-25T01:07:52.471Z,3.40
2019-02-25T01:10:21.518Z,3.57
2019-02-25T01:12:50.572Z,3.00
2019-02-25T01:15:19.574Z,3.67
2019-02-25T01:17:50.273Z,3.23
2019-02-25T01:20:19.738Z,4.00
2019-02-25T01:22:48.739Z,3.67
2019-02-25T01:25:17.722Z,3.60
2019-02-25T01:27:46.764Z,3.70
2019-02-25T01:30:16.128Z,3.30
2019-02-25T01:32:45.230Z,3.50
2019-02-25T01:35:14.308Z,3.40
2019-02-25T01:37:43.574Z,3.27
2019-02-25T01:40:12.680Z,3.50
2019-02-25T01:42:41.755Z,3.43
2019-02-25T01:45:12.099Z,3.77
2019-02-25T01:47:41.077Z,3.43
2019-02-25T01:50:10.597Z,3.43
2019-02-25T01:52:39.914Z,3.27
2019-02-25T01:55:10.601Z,3.77
2019-02-25T01:57:39.644Z,4.73
2019-02-25T02:00:12.062Z,4.60
2019-02-25T02:02:41.404Z,4.03
2019-02-25T02:05:10.527Z,3.90
2019-02-25T02:07:39.605Z,4.30
2019-02-25T02:10:10.133Z,3.37
2019-02-25T02:12:39.202Z,3.90
2019-02-25T02:15:11.262Z,3.67
2019-02-25T02:17:40.514Z,3.90
2019-02-25T02:20:11.179Z,3.60
2019-02-25T02:22:40.258Z,3.70
2019-02-25T02:25:09.464Z,3.53
2019-02-25T02:27:38.533Z,3.43
2019-02-25T02:30:09.844Z,4.00
2019-02-25T02:32:38.825Z,3.60
2019-02-25T02:35:07.820Z,3.77
2019-02-25T02:37:37.186Z,3.80
2019-02-25T02:40:07.210Z,3.67
2019-02-25T02:42:36.217Z,3.50
2019-02-25T02:45:35.832Z,3.77
2019-02-25T02:48:20.966Z,3.50
2019-02-25T02:50:50.399Z,3.47
2019-02-25T02:53:19.570Z,4.00
2019-02-25T02:55:48.631Z,3.77
2019-02-25T02:58:17.992Z,3.73
2019-02-25T03:00:47.038Z,3.47
2019-02-25T03:03:16.559Z,3.47
2019-02-25T03:05:46.199Z,3.60
2019-02-25T03:08:15.177Z,3.70
2019-02-25T03:10:44.238Z,3.27
2019-02-25T03:13:13.223Z,3.70
2019-02-25T03:15:42.193Z,3.30
2019-02-25T03:18:11.628Z,3.20
2019-02-25T03:20:41.149Z,3.40
2019-02-25T03:23:10.214Z,3.83
2019-02-25T03:25:39.175Z,3.57
2019-02-25T03:28:08.207Z,2.97
2019-02-25T03:30:37.275Z,3.50
2019-02-25T03:33:06.337Z,3.43
2019-02-25T03:35:35.955Z,3.90
2019-02-25T03:38:05.006Z,3.70
2019-02-25T03:40:33.990Z,3.53
2019-02-25T03:43:03.831Z,3.20
2019-02-25T03:45:32.810Z,3.40
2019-02-25T03:48:01.851Z,3.83
2019-02-25T03:50:31.121Z,3.03
2019-02-25T03:53:00.101Z,3.53
2019-02-25T03:55:29.082Z,3.63
2019-02-25T03:57:59.635Z,3.27
2019-02-25T04:00:29.391Z,3.50
2019-02-25T04:02:58.398Z,3.90
2019-02-25T04:05:27.842Z,3.57
2019-02-25T04:07:56.896Z,4.07
2019-02-25T04:10:25.871Z,3.23
2019-02-25T04:12:55.131Z,3.77
2019-02-25T04:15:28.358Z,3.87
2019-02-25T04:17:57.571Z,3.63
2019-02-25T04:20:26.612Z,4.00
2019-02-25T04:22:55.675Z,3.33
2019-02-25T04:25:24.719Z,3.60
2019-02-25T04:27:54.057Z,3.50
2019-02-25T04:30:23.174Z,3.77
2019-02-25T04:32:52.141Z,3.90
2019-02-25T04:35:21.395Z,4.03
2019-02-25T04:37:50.634Z,3.53
2019-02-25T04:40:19.624Z,3.17
2019-02-25T04:42:49.159Z,3.57
2019-02-25T04:45:18.571Z,4.03
2019-02-25T04:47:47.661Z,3.90
2019-02-25T04:50:17.711Z,3.77
2019-02-25T04:52:46.699Z,3.77
2019-02-25T04:55:15.762Z,3.43
2019-02-25T04:57:45.272Z,3.67
2019-02-25T05:00:16.280Z,3.60
2019-02-25T05:02:45.767Z,3.70
2019-02-25T05:05:15.011Z,3.50
2019-02-25T05:07:44.070Z,3.87
2019-02-25T05:10:14.245Z,4.13
2019-02-25T05:12:48.462Z,3.27
2019-02-25T05:15:18.645Z,3.90
2019-02-25T05:17:47.743Z,3.60
2019-02-25T05:20:16.828Z,3.87
2019-02-25T05:22:46.001Z,3.40
2019-02-25T05:25:14.987Z,3.87
2019-02-25T05:27:44.535Z,3.77
2019-02-25T05:30:13.761Z,4.07
2019-02-25T05:32:42.768Z,3.20
2019-02-25T05:35:12.127Z,4.10
2019-02-25T05:37:41.193Z,3.33
2019-02-25T05:40:12.759Z,3.77
2019-02-25T05:42:41.838Z,3.30
2019-02-25T05:45:10.905Z,3.57
2019-02-25T05:47:39.886Z,3.97
2019-02-25T05:50:12.569Z,3.60
2019-02-25T05:52:41.627Z,3.47
2019-02-25T05:55:12.281Z,3.53
2019-02-25T05:57:41.958Z,4.07
2019-02-25T06:00:14.917Z,4.07
2019-02-25T06:02:43.962Z,3.83
2019-02-25T06:05:14.167Z,3.67
2019-02-25T06:07:43.139Z,3.13
2019-02-25T06:10:12.351Z,3.27
2019-02-25T06:12:41.529Z,3.90
2019-02-25T06:15:11.346Z,3.60
2019-02-25T06:17:40.398Z,3.67
2019-02-25T06:20:11.320Z,3.43
2019-02-25T06:22:40.561Z,3.70
2019-02-25T06:25:09.759Z,3.60
2019-02-25T06:27:39.711Z,3.60
2019-02-25T06:30:10.954Z,3.50
2019-02-25T06:32:40.073Z,3.90
2019-02-25T06:35:09.379Z,3.50
2019-02-25T06:37:38.431Z,3.83
2019-02-25T06:40:08.224Z,4.17
2019-02-25T06:42:37.601Z,3.60
2019-02-25T06:45:08.066Z,3.97
2019-02-25T06:47:37.263Z,3.83
2019-02-25T06:50:06.699Z,3.63
2019-02-25T06:52:35.892Z,3.37
2019-02-25T06:55:05.687Z,4.20
2019-02-25T06:57:34.839Z,3.50
2019-02-25T07:00:04.459Z,3.50
2019-02-25T07:02:33.560Z,3.23
2019-02-25T07:05:17.328Z,3.73
2019-02-25T07:08:03.086Z,3.83
2019-02-25T07:10:51.231Z,3.67
2019-02-25T07:13:30.801Z,3.63
2019-02-25T07:16:21.836Z,3.80
2019-02-25T07:19:12.913Z,3.67
2019-02-25T07:22:07.407Z,3.77
2019-02-25T07:24:53.042Z,4.00
2019-02-25T07:27:41.977Z,3.93
2019-02-25T07:30:28.590Z,3.70
2019-02-25T07:33:22.837Z,3.53
2019-02-25T07:36:16.683Z,3.80
2019-02-25T07:39:08.063Z,4.30
2019-02-25T07:41:55.140Z,3.60
2019-02-25T07:44:59.046Z,3.90
2019-02-25T07:48:02.245Z,3.87
2019-02-25T07:50:48.954Z,3.60
2019-02-25T07:53:49.324Z,3.70
2019-02-25T07:56:40.600Z,3.90
2019-02-25T07:59:40.659Z,3.60
2019-02-25T08:02:25.691Z,4.30
2019-02-25T08:05:13.803Z,4.77
2019-02-25T08:08:07.999Z,4.17
2019-02-25T08:11:02.331Z,4.57
2019-02-25T08:13:37.310Z,3.90
2019-02-25T08:16:31.255Z,3.80
2019-02-25T08:19:14.817Z,3.67
2019-02-25T08:21:54.939Z,3.03
2019-02-25T08:24:41.504Z,3.57
2019-02-25T08:27:22.207Z,4.07
2019-02-25T08:30:25.455Z,3.47
2019-02-25T08:33:01.130Z,3.07
2019-02-25T08:36:47.863Z,2.80
2019-02-25T08:39:32.095Z,2.63
2019-02-25T08:42:09.248Z,2.57
2019-02-25T08:44:49.644Z,3.00
2019-02-25T08:47:41.168Z,2.80
2019-02-25T08:50:11.890Z,2.90
2019-02-25T08:52:40.864Z,2.97
2019-02-25T08:55:10.549Z,2.57
2019-02-25T08:57:40.646Z,2.47
2019-02-25T09:00:12.086Z,2.53
2019-02-25T09:02:41.164Z,2.50
2019-02-25T09:05:11.917Z,2.40
2019-02-25T09:07:42.675Z,2.50
2019-02-25T09:10:13.549Z,2.83
2019-02-25T09:12:42.862Z,2.60
2019-02-25T09:15:12.140Z,2.63
2019-02-25T09:17:46.423Z,2.27
2019-02-25T09:20:15.939Z,2.57
2019-02-25T09:22:45.014Z,2.67
2019-02-25T09:25:14.403Z,2.00
2019-02-25T09:27:43.427Z,4.47
2019-02-25T09:30:14.903Z,4.87
2019-02-25T09:32:44.677Z,4.40
2019-02-25T09:35:13.738Z,4.50
2019-02-25T09:37:42.716Z,4.93
2019-02-25T09:40:13.655Z,4.83
2019-02-25T09:42:42.622Z,4.37
2019-02-25T09:45:13.199Z,4.80
2019-02-25T09:47:42.619Z,4.60
2019-02-25T09:50:13.655Z,4.13
2019-02-25T09:52:42.718Z,4.43
2019-02-25T09:55:13.071Z,4.23
2019-02-25T09:57:42.140Z,4.30
2019-02-25T10:00:13.946Z,4.13
2019-02-25T10:02:43.034Z,5.17
2019-02-25T10:05:13.944Z,4.60
2019-02-25T10:07:42.918Z,4.23
2019-02-25T10:10:13.399Z,4.37
2019-02-25T10:12:42.438Z,4.47
2019-02-25T10:15:12.378Z,5.13
2019-02-25T10:17:41.619Z,5.70
2019-02-25T10:20:10.598Z,5.00
2019-02-25T10:22:40.041Z,4.30
2019-02-25T10:25:10.914Z,4.43
2019-02-25T10:27:39.966Z,4.90
2019-02-25T10:30:10.416Z,4.33
2019-02-25T10:32:39.545Z,3.13
2019-02-25T10:35:10.266Z,4.07
2019-02-25T10:37:41.219Z,4.57
2019-02-25T10:40:14.925Z,4.60
2019-02-25T10:42:43.766Z,3.57
2019-02-25T10:45:15.736Z,4.33
2019-02-25T10:47:46.677Z,4.93
2019-02-25T10:50:28.705Z,5.07
2019-02-25T10:53:03.457Z,6.60
2019-02-25T10:55:31.670Z,6.67
2019-02-25T10:58:02.043Z,6.03
2019-02-25T11:00:32.163Z,7.37
2019-02-25T11:03:01.217Z,6.00
2019-02-25T11:05:30.687Z,6.93
2019-02-25T11:08:02.849Z,6.50
2019-02-25T11:10:41.856Z,6.23
2019-02-25T11:13:11.324Z,6.30
2019-02-25T11:15:42.404Z,5.30
2019-02-25T11:18:11.226Z,5.67
2019-02-25T11:20:40.406Z,5.23
2019-02-25T11:23:10.184Z,5.30
2019-02-25T11:25:40.923Z,4.43
2019-02-25T11:28:22.652Z,5.30
2019-02-25T11:30:43.166Z,4.80
2019-02-25T11:33:13.940Z,4.70
2019-02-25T11:35:43.894Z,3.97
2019-02-25T11:38:14.100Z,4.67
2019-02-25T11:40:43.071Z,4.90
2019-02-25T11:43:13.236Z,3.27
2019-02-25T11:45:43.406Z,2.83
2019-02-25T11:48:12.450Z,2.90
2019-02-25T11:50:41.567Z,3.20
2019-02-25T11:53:10.601Z,2.97
2019-02-25T11:55:39.646Z,2.80
2019-02-25T11:58:09.091Z,2.93
2019-02-25T12:00:39.811Z,2.63
2019-02-25T12:03:08.914Z,2.30
2019-02-25T12:05:38.275Z,3.03
2019-02-25T12:08:07.319Z,3.17
2019-02-25T12:10:36.269Z,2.73
2019-02-25T12:13:05.370Z,3.23
2019-02-25T12:15:34.417Z,3.23
2019-02-25T12:18:03.621Z,2.40
2019-02-25T12:20:32.627Z,2.40
2019-02-25T12:23:02.012Z,3.03
2019-02-25T12:25:31.614Z,2.70
2019-02-25T12:28:00.610Z,2.60
2019-02-25T12:30:29.709Z,2.00
2019-02-25T12:32:58.757Z,2.07
2019-02-25T12:35:27.810Z,3.00
2019-02-25T12:37:56.782Z,2.73
2019-02-25T12:40:25.939Z,2.90
2019-02-25T12:42:55.011Z,2.80
2019-02-25T12:45:23.979Z,3.00
2019-02-25T12:47:53.026Z,2.33
2019-02-25T12:50:22.287Z,2.80
2019-02-25T12:52:51.257Z,2.50
2019-02-25T12:55:20.299Z,2.10
2019-02-25T12:57:49.882Z,2.53
2019-02-25T13:00:18.925Z,2.17
2019-02-25T13:02:48.086Z,2.40
2019-02-25T13:05:17.502Z,2.07
2019-02-25T13:07:46.542Z,2.60
2019-02-25T13:10:15.774Z,2.70
2019-02-25T13:12:45.243Z,2.00
2019-02-25T13:15:14.846Z,2.30
2019-02-25T13:17:43.899Z,2.67
2019-02-25T13:20:13.002Z,2.13
2019-02-25T13:22:41.995Z,2.13
2019-02-25T13:25:13.213Z,3.07
2019-02-25T13:27:43.078Z,3.10
2019-02-25T13:30:14.334Z,2.50
2019-02-25T13:32:43.460Z,2.50
2019-02-25T13:35:13.151Z,2.55
2019-02-25T13:37:42.258Z,2.37
2019-02-25T13:40:11.547Z,2.80
2019-02-25T13:42:40.736Z,2.23
2019-02-25T13:45:10.974Z,1.97
2019-02-25T13:47:40.104Z,1.90
2019-02-25T13:50:11.927Z,1.40
2019-02-25T13:52:48.013Z,2.63
2019-02-25T13:55:12.098Z,2.20
2019-02-25T13:57:41.786Z,2.33
2019-02-25T14:00:17.798Z,1.80
2019-02-25T14:02:47.024Z,2.80
2019-02-25T14:05:16.154Z,2.70
2019-02-25T14:07:45.276Z,2.47
2019-02-25T14:10:14.730Z,1.93
2019-02-25T14:12:43.847Z,2.57
2019-02-25T14:15:14.452Z,2.13
2019-02-25T14:17:45.083Z,2.27
2019-02-25T14:20:16.125Z,2.67
2019-02-25T14:22:45.185Z,1.90
2019-02-25T14:25:15.622Z,2.77
2019-02-25T14:27:45.492Z,2.47
2019-02-25T14:30:18.196Z,2.00
2019-02-25T14:32:47.482Z,2.47
2019-02-25T14:35:16.996Z,2.33
2019-02-25T14:37:46.042Z,2.67
2019-02-25T14:40:17.169Z,2.13
2019-02-25T14:42:48.779Z,2.30
2019-02-25T14:45:21.368Z,2.30
2019-02-25T14:47:49.766Z,2.27
2019-02-25T14:50:19.655Z,1.70
2019-02-25T14:52:48.727Z,1.97
2019-02-25T14:55:18.078Z,1.50
2019-02-25T14:57:47.186Z,2.10
2019-02-25T15:00:23.385Z,1.70
2019-02-25T15:02:51.811Z,1.87
2019-02-25T15:05:21.489Z,2.00
2019-02-25T15:07:51.134Z,2.37
2019-02-25T15:10:21.087Z,1.97
2019-02-25T15:12:53.774Z,1.90
2019-02-25T15:15:21.189Z,1.93
2019-02-25T15:17:51.025Z,1.97
2019-02-25T15:20:22.824Z,2.87
2019-02-25T15:22:51.940Z,2.37
2019-02-25T15:25:21.035Z,2.43
2019-02-25T15:27:50.493Z,2.20
2019-02-25T15:30:22.935Z,2.57
2019-02-25T15:32:56.964Z,2.20
2019-02-25T15:35:26.546Z,2.20
2019-02-25T15:37:56.036Z,2.53
2019-02-25T15:40:27.237Z,2.60
2019-02-25T15:43:04.738Z,3.00
2019-02-25T15:45:37.576Z,2.70
2019-02-25T15:48:07.356Z,2.80
2019-02-25T15:50:36.791Z,2.67
2019-02-25T15:53:07.420Z,2.60
2019-02-25T15:55:37.074Z,3.10
2019-02-25T15:58:08.649Z,2.87
2019-02-25T16:00:37.309Z,3.10
2019-02-25T16:03:08.512Z,3.67
2019-02-25T16:05:38.781Z,3.23
2019-02-25T16:08:08.017Z,3.27
2019-02-25T16:10:37.139Z,4.03
2019-02-25T16:13:11.001Z,3.87
2019-02-25T16:15:37.428Z,3.90
2019-02-25T16:18:06.570Z,3.50
2019-02-25T16:20:35.698Z,3.90
2019-02-25T16:23:07.662Z,5.27
2019-02-25T16:25:36.970Z,3.70
2019-02-25T16:28:07.720Z,3.63
2019-02-25T16:30:37.550Z,4.17
2019-02-25T16:33:07.849Z,3.90
2019-02-25T16:35:38.880Z,3.53
2019-02-25T16:38:09.114Z,3.37
2019-02-25T16:40:40.070Z,3.27
2019-02-25T16:43:12.041Z,2.47
2019-02-25T16:45:41.937Z,2.67
2019-02-25T16:48:11.263Z,3.23
2019-02-25T16:50:42.128Z,3.20
2019-02-25T16:53:14.894Z,2.50
2019-02-25T16:55:44.150Z,2.90
2019-02-25T16:58:13.501Z,2.63
2019-02-25T17:00:43.872Z,2.90
2019-02-25T17:03:13.854Z,2.80
2019-02-25T17:05:45.604Z,3.03
2019-02-25T17:08:17.568Z,2.70
2019-02-25T17:10:46.822Z,3.63
2019-02-25T17:13:17.077Z,3.67
2019-02-25T17:15:47.056Z,3.70
2019-02-25T17:18:16.191Z,4.77
2019-02-25T17:20:45.401Z,4.73
2019-02-25T17:23:16.467Z,4.10
2019-02-25T17:25:45.751Z,3.87
2019-02-25T17:28:19.821Z,5.00
2019-02-25T17:30:47.381Z,3.77
2019-02-25T17:33:17.040Z,4.53
2019-02-25T17:35:47.632Z,5.20
2019-02-25T17:38:18.114Z,4.13
2019-02-25T17:40:47.606Z,5.17
2019-02-25T17:43:17.796Z,5.33
2019-02-25T17:45:47.746Z,4.43
2019-02-25T17:48:18.672Z,4.73
2019-02-25T17:50:47.924Z,5.33
2019-02-25T17:53:17.073Z,5.77
2019-02-25T17:55:46.609Z,5.47
2019-02-25T17:58:17.015Z,5.60
2019-02-25T18:00:46.770Z,5.57
2019-02-25T18:03:17.632Z,5.33
2019-02-25T18:05:46.728Z,4.73
2019-02-25T18:08:15.873Z,4.53
2019-02-25T18:10:45.323Z,5.93
2019-02-25T18:13:15.036Z,5.57
2019-02-25T18:15:45.509Z,6.03
2019-02-25T18:18:17.761Z,6.47
2019-02-25T18:20:46.303Z,6.23
2019-02-25T18:23:15.410Z,6.20
2019-02-25T18:25:44.790Z,6.67
2019-02-25T18:28:15.186Z,5.40
2019-02-25T18:30:45.334Z,5.63
2019-02-25T18:33:14.990Z,4.80
2019-02-25T18:35:45.720Z,4.70
2019-02-25T18:38:15.178Z,5.67
2019-02-25T18:40:46.240Z,3.90
2019-02-25T18:43:16.847Z,3.87
2019-02-25T18:45:46.695Z,3.77
2019-02-25T18:48:17.032Z,2.90
2019-02-25T18:50:49.623Z,3.30
2019-02-25T18:53:18.736Z,3.77
2019-02-25T18:55:50.106Z,3.00
2019-02-25T18:58:20.252Z,2.83
2019-02-25T19:00:53.783Z,3.20
2019-02-25T19:03:26.578Z,3.30
2019-02-25T19:05:57.439Z,2.97
2019-02-25T19:08:28.923Z,2.73
2019-02-25T19:10:58.571Z,3.13
2019-02-25T19:13:29.951Z,3.17
2019-02-25T19:16:01.348Z,2.57
2019-02-25T19:18:40.800Z,3.17
2019-02-25T19:21:04.400Z,3.17
2019-02-25T19:23:37.752Z,2.97
2019-02-25T19:26:12.942Z,2.90
2019-02-25T19:28:44.052Z,3.17
2019-02-25T19:31:13.139Z,3.40
2019-02-25T19:33:42.275Z,3.30
2019-02-25T19:36:11.355Z,3.60
2019-02-25T19:38:41.939Z,3.50
2019-02-25T19:41:13.444Z,3.30
2019-02-25T19:43:42.013Z,3.10
2019-02-25T19:46:11.660Z,3.87
2019-02-25T19:48:42.651Z,4.00
2019-02-25T19:51:12.208Z,4.17
2019-02-25T19:53:42.967Z,3.80
2019-02-25T19:56:12.488Z,4.13
2019-02-25T19:58:41.615Z,4.20
2019-02-25T20:01:11.138Z,3.83
2019-02-25T20:03:42.757Z,4.63
2019-02-25T20:06:14.300Z,4.67
2019-02-25T20:08:42.723Z,4.30
2019-02-25T20:11:12.472Z,4.63
2019-02-25T20:13:43.082Z,4.83
2019-02-25T20:16:15.733Z,5.03
2019-02-25T20:18:43.549Z,4.73
2019-02-25T20:21:12.809Z,4.90
2019-02-25T20:23:41.830Z,4.77
2019-02-25T20:26:13.298Z,4.57
2019-02-25T20:28:43.403Z,4.37
2019-02-25T20:31:14.481Z,4.70
2019-02-25T20:33:43.617Z,5.33
2019-02-25T20:36:12.686Z,5.63
2019-02-25T20:38:41.776Z,4.40
2019-02-25T20:41:11.116Z,4.73
2019-02-25T20:43:40.155Z,4.80
2019-02-25T20:46:09.781Z,5.07
2019-02-25T20:48:38.834Z,5.53
2019-02-25T20:51:10.261Z,5.53
2019-02-25T20:53:38.906Z,5.43
2019-02-25T20:56:07.950Z,4.97
2019-02-25T20:58:38.349Z,4.67
2019-02-25T21:01:09.834Z,5.40
2019-02-25T21:03:41.573Z,5.73
2019-02-25T21:06:10.546Z,5.00
2019-02-25T21:08:42.255Z,5.20
2019-02-25T21:11:13.953Z,4.77
2019-02-25T21:13:43.674Z,5.33
2019-02-25T21:16:13.042Z,5.00
2019-02-25T21:18:42.019Z,4.97
2019-02-25T21:21:12.307Z,5.03
2019-02-25T21:23:41.866Z,6.67
2019-02-25T21:26:11.586Z,4.70
2019-02-25T21:28:42.746Z,5.50
2019-02-25T21:31:13.922Z,4.27
2019-02-25T21:33:44.946Z,4.43
2019-02-25T21:36:13.562Z,4.77
2019-02-25T21:38:42.635Z,4.30
2019-02-25T21:41:13.366Z,3.93
2019-02-25T21:43:43.596Z,3.97
2019-02-25T21:46:17.828Z,4.40
2019-02-25T21:48:44.929Z,4.47
2019-02-25T21:51:14.354Z,4.17
2019-02-25T21:53:43.898Z,5.77
2019-02-25T21:56:13.188Z,4.83
2019-02-25T21:58:44.466Z,5.13
2019-02-25T22:01:13.334Z,4.47
2019-02-25T22:03:45.940Z,4.27
2019-02-25T22:06:13.074Z,4.13
2019-02-25T22:08:42.169Z,3.67
2019-02-25T22:11:15.606Z,4.00
2019-02-25T22:13:43.351Z,3.67
2019-02-25T22:16:12.395Z,3.67
2019-02-25T22:18:41.449Z,4.10
2019-02-25T22:21:13.680Z,4.00
2019-02-25T22:23:41.347Z,3.73
2019-02-25T22:26:10.319Z,4.20
2019-02-25T22:28:39.594Z,3.67
2019-02-25T22:31:10.818Z,4.17
2019-02-25T22:33:39.870Z,3.40
2019-02-25T22:36:08.894Z,3.47
2019-02-25T22:38:38.052Z,4.17
2019-02-25T22:41:07.389Z,3.03
2019-02-25T22:43:37.367Z,3.40
2019-02-25T22:46:09.408Z,2.80
2019-02-25T22:48:42.012Z,3.30
2019-02-25T22:51:08.997Z,3.77
2019-02-25T22:53:38.002Z,3.33
2019-02-25T22:56:11.495Z,3.37
2019-02-25T22:58:39.042Z,3.47
2019-02-25T23:01:14.709Z,3.47
2019-02-25T23:03:44.932Z,3.30
2019-02-25T23:06:13.453Z,3.30
2019-02-25T23:08:46.388Z,3.53
2019-02-25T23:11:16.685Z,3.37
2019-02-25T23:13:47.858Z,3.10
2019-02-25T23:16:18.689Z,2.73
2019-02-25T23:18:48.043Z,3.30
2019-02-25T23:21:23.488Z,3.70
2019-02-25T23:23:51.229Z,3.30
2019-02-25T23:26:19.946Z,3.20
2019-02-25T23:28:51.054Z,3.80
2019-02-25T23:31:21.709Z,3.17
2019-02-25T23:33:51.338Z,3.50
2019-02-25T23:36:22.199Z,3.30
2019-02-25T23:38:54.750Z,3.07
2019-02-25T23:41:23.629Z,3.70
2019-02-25T23:43:52.614Z,3.70
2019-02-25T23:46:25.192Z,3.87
2019-02-25T23:48:53.066Z,3.83
2019-02-25T23:51:23.493Z,4.13
2019-02-25T23:53:55.424Z,3.40
2019-02-25T23:56:25.635Z,3.40
2019-02-25T23:58:54.646Z,3.47
